Airfield :
LOGIN :

Register | Disclaimer

   EN    FR    IT 

 










Legend :    VFR   Marginal VFR   IFR   Intensive IFR   Very Intensive IFR
Visi :
Ceiling :
>= 8 km
>= 3000ft
5 to 8 km
1000 to 3000 ft
1500m to 5 km
500 to 1000 ft
800 to 1500m
200 to 500 ft
< 800m
< 200 ft
Symbols :   Thunderstorms  Fog  Heavy snow  Heavy precipitations  Wind > 20 kt
SIGMETs :     Misc.  Thunderstorms  Icing  Turbulence  Mountain Waves  Volcanic Ashes







- Airport Elevation : 538 ft
- IATA code : TNF
- Download approach charts


LFPN - Toussus Le Noble

CURRENT METAR :
  • 222000Z AUTO 19010KT 160V220 9999 OVC009 16/15 Q1010 TEMPO 3000 -SHRA BR BKN011 BKN020TCU

EXPIRED METARs :
  • 221930Z AUTO 18008KT 9999 OVC008 16/15 Q1010 TEMPO 3000 -SHRA BR BKN011 BKN020TCU
  • 221900Z AUTO 19008KT 9999 OVC009 16/15 Q1010 TEMPO 3000 -SHRA BR BKN011 BKN020TCU
  • 221830Z AUTO 18007KT 150V210 9999 OVC009 16/15 Q1010 TEMPO 3000 -SHRA BR BKN011 BKN020TCU
  • 221800Z AUTO 19011KT 9999 OVC010 16/15 Q1010 TEMPO 3000 -SHRA BR BKN011 BKN020TCU
  • 221730Z AUTO 18010KT 9999 OVC009 16/15 Q1010 TEMPO 3000 -SHRA BR BKN011 BKN020TCU
  • 221700Z AUTO 20008KT 9999 BKN010 BKN120 OVC150 16/15 Q1009 TEMPO SCT013 BKN020TCU

TAF TAF LFPN
Valid from the 22 at 18:00 until the 23 at 03:00 UTC


221700Z 2218/2303 20008KT 9999 SCT035
PROB40
TEMPO 2218/2221 3000 -SHRA BR BKN011 BKN020TCU
BECMG 2301/2303 BKN020
ATIS : +33 1 39 56 54 70
No reported NOTAMs for that airfield.



MET'MAP, your aeronautical weather chart ! - Copyright ORBIFLY December 2007 - Disclaimer

ORBIFLY MET'MAP TEAM :

Programming & Development : Alexandra Zaïnal
Concept & Development : Baudouin d'Aumeries
Co-Development & Prog : Marc-Olivier Méhu
Technical & hardware support : Manuel Goepfert

Contact : metmap@orbifly.com




SOURCES & CREDITS :

   NOAA